Grissom AFB, Indiana
Current Conditions -  °F | °C
As of 7:58 AM on Sunday 23 Nov 2014 (Local Time) from KGUS Reporting Station
Overcast Overcast  
Wind Chill: 39°   Ceiling: 12000
Heat Index: 45°   Visibility: 10mi
Dew Point: 45°   Wind: 10mph
Humidity: 100%   Direction: 150°SSE
Pressure: 29.87"   Gusts: NA
Location:  40.66°N, 86.15°W
Report Text: KGUS 231258Z AUTO 15009KT 10SM SCT090 OVC120 07/07 A2987 RMK AO2 SLP120 T00710071
Loading
Personal Weather Stations






























Interactive Weather Map New forecast layout! Learn more

10-Day Weather Forecast

Advertisements
Track Severe Weather on mobile